createdAt,value
2017-04-02T00:00:02.222Z,11.01
2017-04-02T00:15:02.551Z,10.92
2017-04-02T00:30:02.228Z,10.83
2017-04-02T00:45:02.948Z,10.75
2017-04-02T01:00:02.635Z,10.66
2017-04-02T01:15:02.524Z,10.58
2017-04-02T01:30:02.216Z,10.46
2017-04-02T01:45:02.384Z,10.37
2017-04-02T02:00:03.080Z,10.3
2017-04-02T02:15:02.488Z,10.2
2017-04-02T02:30:02.180Z,10.11
2017-04-02T02:45:02.679Z,10.11
2017-04-02T03:00:02.240Z,10.14
2017-04-02T03:15:02.557Z,10.23
2017-04-02T03:30:02.271Z,10.19
2017-04-02T03:45:02.783Z,10.18
2017-04-02T04:00:02.220Z,10.14
2017-04-02T04:15:03.064Z,10.1
2017-04-02T04:30:03.049Z,10.09
2017-04-02T04:45:07.395Z,10.03
2017-04-02T05:00:07.796Z,9.99
2017-04-02T05:15:02.535Z,9.95
2017-04-02T05:30:02.153Z,9.9
2017-04-02T05:45:02.911Z,9.86
2017-04-02T06:00:02.396Z,9.85
2017-04-02T06:15:02.115Z,9.91
2017-04-02T06:30:03.139Z,10.01
2017-04-02T06:45:02.823Z,10.19
2017-04-02T07:00:02.540Z,10.29
2017-04-02T07:15:02.573Z,10.39
2017-04-02T07:30:02.263Z,10.51
2017-04-02T07:45:02.726Z,10.58
2017-04-02T08:00:02.259Z,10.83
2017-04-02T08:15:02.423Z,11.17
2017-04-02T08:30:02.239Z,11.71
2017-04-02T08:45:02.891Z,12.2
2017-04-02T09:00:02.442Z,12.79
2017-04-02T09:15:02.199Z,13.15
2017-04-02T09:30:02.928Z,13.43
2017-04-02T09:45:02.387Z,14.72
2017-04-02T10:00:02.840Z,16.29
2017-04-02T10:15:02.614Z,16.75
2017-04-02T10:30:02.354Z,16.67
2017-04-02T10:45:03.043Z,16.27
2017-04-02T11:00:02.521Z,15.42
2017-04-02T11:15:02.582Z,14.93
2017-04-02T11:30:02.904Z,14.55
2017-04-02T11:45:02.368Z,14.26
2017-04-02T12:00:03.072Z,14.41
2017-04-02T12:15:02.923Z,15.11
2017-04-02T12:30:02.646Z,15.45
2017-04-02T12:45:02.403Z,16.29
2017-04-02T13:00:02.851Z,15.76
2017-04-02T13:15:02.716Z,15.61
2017-04-02T13:30:02.890Z,15.52
2017-04-02T13:45:02.966Z,15.42
2017-04-02T14:00:02.263Z,15.69
2017-04-02T14:15:03.053Z,15.62
2017-04-02T14:30:02.968Z,15.47
2017-04-02T14:45:02.603Z,16.17
2017-04-02T15:00:03.093Z,16.37
2017-04-02T15:15:02.782Z,16.58
2017-04-02T15:30:02.482Z,16.72
2017-04-02T15:45:03.121Z,16.95
2017-04-02T16:00:02.151Z,16.85
2017-04-02T16:15:02.591Z,16.24
2017-04-02T16:30:02.247Z,16.22
2017-04-02T16:45:02.996Z,16
2017-04-02T17:00:02.460Z,15.85
2017-04-02T17:15:02.924Z,15.67
2017-04-02T17:30:02.617Z,15.36
2017-04-02T17:45:03.328Z,14.93
2017-04-02T18:00:02.791Z,14.45
2017-04-02T18:15:02.304Z,13.96
2017-04-02T18:30:02.976Z,13.22
2017-04-02T18:45:02.492Z,12.6
2017-04-02T19:00:02.953Z,12.52
2017-04-02T19:15:02.501Z,12.74
2017-04-02T19:30:02.506Z,12.51
2017-04-02T19:45:03.192Z,12.22
2017-04-02T20:00:02.681Z,11.9
2017-04-02T20:15:02.478Z,11.85
2017-04-02T20:30:02.191Z,11.6
2017-04-02T20:45:02.910Z,11.26
2017-04-02T21:00:02.444Z,10.97
2017-04-02T21:15:02.891Z,10.66
2017-04-02T21:30:02.573Z,10.31
2017-04-02T21:45:03.053Z,10.07
2017-04-02T22:00:02.565Z,10.05
2017-04-02T22:15:03.227Z,10.16
2017-04-02T22:30:02.916Z,10.08
2017-04-02T22:45:02.355Z,9.84
2017-04-02T23:00:02.774Z,9.74
2017-04-02T23:15:02.604Z,9.62
2017-04-02T23:30:02.560Z,9.44
2017-04-02T23:45:02.372Z,9.21
